Time;durP1;ratioP1;P1;durP2;ratioP2;P2;SDS_P1;SDS_P2;PMS_P1;PMS_P2;Temp;Humidity;BMP_temperature;BMP_pressure;BME280_temperature;BME280_humidity;BME280_pressure;Samples;Min_cycle;Max_cycle;Signal;HPM_P1;HPM_P2
2021/11/24 00:01:24;;;;;;;9.47;8.73;;;1.70;56.60;;;;;;4993834;28;20472;-89
2021/11/24 00:03:50;;;;;;;9.80;8.90;;;1.60;56.10;;;;;;4994125;28;20177;-90
2021/11/24 00:06:16;;;;;;;10.17;9.00;;;1.70;55.10;;;;;;4993814;28;20183;-89
2021/11/24 00:08:41;;;;;;;8.80;8.00;;;1.80;55.30;;;;;;4994284;28;20175;-89
2021/11/24 00:11:07;;;;;;;9.20;8.30;;;1.70;54.70;;;;;;4995003;28;20593;-88
2021/11/24 00:13:33;;;;;;;10.50;7.97;;;1.70;54.60;;;;;;4993625;28;20177;-89
2021/11/24 00:15:59;;;;;;;8.60;7.88;;;1.70;55.30;;;;;;4993398;28;20202;-89
2021/11/24 00:18:24;;;;;;;9.83;8.70;;;1.70;55.00;;;;;;4993664;28;20182;-88
2021/11/24 00:20:50;;;;;;;9.30;8.50;;;1.60;55.40;;;;;;4993347;28;20494;-89
2021/11/24 00:23:16;;;;;;;8.83;7.93;;;1.50;55.50;;;;;;4992818;28;20205;-88
2021/11/24 00:25:41;;;;;;;9.50;8.60;;;1.50;55.80;;;;;;4993079;28;20226;-88
2021/11/24 00:28:07;;;;;;;8.33;7.70;;;1.50;55.90;;;;;;4993050;28;20202;-89
2021/11/24 00:30:33;;;;;;;8.57;7.87;;;1.40;56.20;;;;;;4993142;28;20181;-87
2021/11/24 00:33:00;;;;;;;8.50;7.70;;;1.40;55.60;;;;;;4993523;28;20417;-89
2021/11/24 00:35:25;;;;;;;9.05;8.07;;;1.40;55.70;;;;;;4993132;28;20421;-89
2021/11/24 00:37:51;;;;;;;10.70;9.13;;;1.50;56.40;;;;;;4992839;28;20180;-90
2021/11/24 00:40:17;;;;;;;8.47;7.77;;;1.40;56.20;;;;;;4992780;28;20178;-88
2021/11/24 00:42:43;;;;;;;9.45;8.45;;;1.40;56.30;;;;;;4992407;28;20543;-89
2021/11/24 00:45:09;;;;;;;9.70;8.73;;;1.40;55.90;;;;;;4992075;28;20186;-89
2021/11/24 00:47:35;;;;;;;10.68;9.57;;;1.40;56.30;;;;;;4992343;28;20177;-89
2021/11/24 00:50:01;;;;;;;9.67;8.87;;;1.40;57.40;;;;;;4992669;28;20201;-89
2021/11/24 00:52:29;;;;;;;10.13;9.33;;;1.40;56.00;;;;;;4992325;28;20286;-88
2021/11/24 00:54:55;;;;;;;9.70;8.80;;;1.40;56.40;;;;;;4993082;28;20462;-89
2021/11/24 00:57:21;;;;;;;8.60;7.80;;;1.50;56.40;;;;;;4994165;28;20176;-87
2021/11/24 00:59:46;;;;;;;8.80;8.10;;;1.50;55.70;;;;;;4996197;28;20426;-89
2021/11/24 01:02:12;;;;;;;9.20;8.20;;;1.40;55.70;;;;;;5001335;28;20226;-89
2021/11/24 01:04:41;;;;;;;9.50;8.70;;;1.40;55.70;;;;;;4998265;28;20192;-88
2021/11/24 01:07:07;;;;;;;9.30;8.40;;;1.40;56.00;;;;;;4991378;28;20183;-88
2021/11/24 01:09:33;;;;;;;9.87;8.97;;;1.30;56.00;;;;;;4990683;28;20175;-90
2021/11/24 01:11:59;;;;;;;9.20;8.40;;;1.30;56.40;;;;;;4991197;28;20274;-88
2021/11/24 01:14:25;;;;;;;9.40;8.47;;;1.20;56.50;;;;;;4991233;28;20659;-88
2021/11/24 01:16:51;;;;;;;8.20;7.47;;;1.20;57.10;;;;;;4991020;28;20425;-89
2021/11/24 01:19:17;;;;;;;10.40;9.40;;;1.20;57.20;;;;;;4976383;28;20213;-89
2021/11/24 01:21:43;;;;;;;10.60;9.57;;;1.30;56.50;;;;;;4990850;28;20625;-89
2021/11/24 01:24:09;;;;;;;8.90;7.97;;;1.30;57.20;;;;;;4990434;28;20178;-88
2021/11/24 01:26:34;;;;;;;9.90;9.00;;;1.20;56.20;;;;;;4988879;28;20171;-88
2021/11/24 01:29:00;;;;;;;8.97;8.20;;;1.20;56.60;;;;;;4989708;28;20181;-88
2021/11/24 01:31:26;;;;;;;10.20;8.60;;;1.20;56.80;;;;;;4988265;28;20183;-88
2021/11/24 01:33:51;;;;;;;8.80;7.93;;;1.10;56.70;;;;;;4987973;28;20177;-89
2021/11/24 01:36:17;;;;;;;9.60;8.77;;;1.10;56.90;;;;;;4974155;28;20597;-89
2021/11/24 01:38:43;;;;;;;9.23;8.53;;;1.10;57.60;;;;;;4973642;28;20563;-89
2021/11/24 01:41:09;;;;;;;10.23;8.50;;;1.10;57.40;;;;;;4988462;28;20290;-88
2021/11/24 01:43:35;;;;;;;8.70;7.70;;;1.10;57.60;;;;;;4988444;28;20281;-90
2021/11/24 01:46:00;;;;;;;9.50;8.53;;;1.10;57.20;;;;;;4988363;28;20205;-89
2021/11/24 01:48:27;;;;;;;9.03;8.23;;;1.10;57.40;;;;;;4988253;28;20346;-88
2021/11/24 01:50:53;;;;;;;9.10;8.25;;;1.10;57.40;;;;;;4987934;28;20201;-88
2021/11/24 01:53:19;;;;;;;8.70;7.80;;;1.20;57.60;;;;;;4988582;28;20252;-88
2021/11/24 01:55:45;;;;;;;9.40;8.60;;;1.20;57.50;;;;;;4987912;28;20196;-89
2021/11/24 01:58:11;;;;;;;10.50;9.37;;;1.20;56.70;;;;;;4986891;28;20430;-88
2021/11/24 02:00:37;;;;;;;7.57;6.97;;;1.10;57.50;;;;;;4987738;28;20178;-89
2021/11/24 02:03:05;;;;;;;10.53;8.40;;;1.10;57.10;;;;;;4987026;28;20274;-88
2021/11/24 02:05:33;;;;;;;9.88;9.05;;;1.10;57.90;;;;;;4989461;28;20417;-88
2021/11/24 02:07:59;;;;;;;9.02;8.20;;;1.10;57.60;;;;;;4989514;28;20171;-88
2021/11/24 02:10:25;;;;;;;9.00;8.30;;;1.10;57.40;;;;;;4989364;28;20174;-89
2021/11/24 02:12:52;;;;;;;10.43;8.60;;;1.10;57.10;;;;;;4987368;28;20270;-87
2021/11/24 02:15:19;;;;;;;9.60;8.73;;;1.10;57.90;;;;;;4986749;28;20428;-88
2021/11/24 02:17:45;;;;;;;9.23;8.43;;;1.10;57.90;;;;;;4986095;28;20186;-88
2021/11/24 02:20:33;;;;;;;9.45;8.43;;;1.00;58.20;;;;;;4985853;28;20551;-87
2021/11/24 02:22:59;;;;;;;9.10;8.30;;;1.10;58.10;;;;;;4957872;28;20202;-88
2021/11/24 02:25:25;;;;;;;9.10;8.25;;;1.10;58.20;;;;;;4985916;28;20542;-88
2021/11/24 02:27:51;;;;;;;8.93;8.23;;;1.10;58.00;;;;;;4985894;28;20182;-88
2021/11/24 02:30:17;;;;;;;9.43;8.63;;;1.10;57.20;;;;;;4985607;28;20234;-88
2021/11/24 02:32:43;;;;;;;8.80;8.00;;;1.10;57.50;;;;;;4988549;28;20417;-89
2021/11/24 02:35:09;;;;;;;10.73;9.30;;;1.10;57.90;;;;;;4994096;28;20658;-88
2021/11/24 02:37:35;;;;;;;10.52;9.52;;;1.10;57.40;;;;;;4994741;28;20421;-88
2021/11/24 02:40:02;;;;;;;9.80;8.80;;;1.10;57.30;;;;;;4971068;28;20655;-88
2021/11/24 02:42:28;;;;;;;10.65;9.43;;;1.00;57.40;;;;;;4985491;28;20695;-88
2021/11/24 02:44:55;;;;;;;9.27;8.47;;;1.00;58.00;;;;;;4985755;28;20269;-88
2021/11/24 02:47:22;;;;;;;9.15;8.18;;;1.00;58.10;;;;;;4985116;28;20178;-88
2021/11/24 02:49:52;;;;;;;10.02;9.13;;;1.00;58.10;;;;;;4986132;28;20225;-88
2021/11/24 02:52:20;;;;;;;10.30;9.40;;;1.10;57.80;;;;;;4985709;28;20194;-87
2021/11/24 02:54:54;;;;;;;11.00;10.00;;;1.10;57.40;;;;;;4970638;28;20257;-88
2021/11/24 02:57:28;;;;;;;10.52;9.13;;;1.00;57.10;;;;;;4985854;28;20205;-88
2021/11/24 02:59:54;;;;;;;10.10;9.20;;;1.00;57.30;;;;;;4985069;28;20190;-89
2021/11/24 03:02:20;;;;;;;9.80;8.80;;;0.90;58.10;;;;;;4968685;28;20821;-87
2021/11/24 03:04:46;;;;;;;10.47;9.57;;;0.90;58.20;;;;;;4985684;28;20206;-87
2021/11/24 03:07:11;;;;;;;10.43;9.63;;;1.10;58.70;;;;;;4993666;28;20182;-88
2021/11/24 03:09:37;;;;;;;11.33;10.43;;;1.10;57.70;;;;;;5000623;28;20418;-87
2021/11/24 03:12:03;;;;;;;11.37;10.27;;;1.20;57.70;;;;;;4989314;28;20194;-88
2021/11/24 03:14:29;;;;;;;9.82;9.02;;;1.10;57.40;;;;;;4986764;28;20653;-88
2021/11/24 03:16:58;;;;;;;10.03;9.23;;;1.20;57.60;;;;;;4986341;28;20226;-88
2021/11/24 03:19:23;;;;;;;9.93;9.20;;;1.10;57.00;;;;;;4986577;28;20472;-90
2021/11/24 03:21:49;;;;;;;9.00;8.30;;;1.00;58.10;;;;;;4986208;28;20344;-88
2021/11/24 03:24:15;;;;;;;9.53;8.70;;;1.00;57.30;;;;;;4985964;28;20425;-88
2021/11/24 03:26:41;;;;;;;9.07;8.17;;;0.90;57.10;;;;;;4986316;28;20425;-88
2021/11/24 03:29:06;;;;;;;9.00;8.20;;;0.90;57.20;;;;;;4985295;28;20228;-88
2021/11/24 03:31:32;;;;;;;10.03;8.73;;;0.90;56.70;;;;;;4987375;28;20546;-87
2021/11/24 03:33:58;;;;;;;9.57;8.63;;;0.80;57.90;;;;;;4989464;28;20189;-87
2021/11/24 03:36:23;;;;;;;10.20;9.27;;;0.80;58.10;;;;;;4989205;28;20198;-87
2021/11/24 03:38:49;;;;;;;10.20;9.40;;;0.80;57.80;;;;;;4989301;28;20276;-89
2021/11/24 03:41:15;;;;;;;9.87;9.07;;;0.80;57.60;;;;;;4989637;28;20210;-88
2021/11/24 03:43:41;;;;;;;10.70;9.70;;;0.80;56.30;;;;;;4989132;28;20547;-88
2021/11/24 03:46:07;;;;;;;10.73;9.60;;;0.80;57.10;;;;;;4989519;28;20642;-87
2021/11/24 03:48:33;;;;;;;9.23;8.32;;;0.70;57.20;;;;;;4989101;28;20190;-89
2021/11/24 03:50:58;;;;;;;10.90;10.10;;;0.80;57.40;;;;;;4974923;28;20187;-88
2021/11/24 03:53:24;;;;;;;10.23;9.27;;;0.90;57.00;;;;;;4988866;28;20268;-87
2021/11/24 03:55:50;;;;;;;11.57;10.37;;;0.90;57.00;;;;;;4989289;28;20518;-88
2021/11/24 03:58:16;;;;;;;10.47;9.47;;;0.80;57.20;;;;;;4989987;28;20214;-88
2021/11/24 04:00:42;;;;;;;11.30;10.40;;;0.90;57.00;;;;;;4989630;28;20604;-83
2021/11/24 04:03:07;;;;;;;11.30;10.30;;;0.70;56.70;;;;;;4989808;28;20636;-88
2021/11/24 04:05:33;;;;;;;10.10;9.30;;;0.70;56.90;;;;;;4988882;28;20511;-89
2021/11/24 04:07:59;;;;;;;11.50;10.60;;;0.70;58.50;;;;;;4989357;28;20427;-86
2021/11/24 04:10:25;;;;;;;11.90;10.73;;;0.70;58.00;;;;;;4989628;28;20178;-92
2021/11/24 04:12:51;;;;;;;12.23;11.15;;;0.60;58.40;;;;;;4990258;28;20186;-87
2021/11/24 04:15:18;;;;;;;12.90;11.60;;;0.60;58.50;;;;;;4996594;28;20237;-86
2021/11/24 04:17:45;;;;;;;11.85;10.80;;;0.50;58.30;;;;;;4988461;28;20241;-88
2021/11/24 04:20:15;;;;;;;11.45;10.30;;;0.60;58.80;;;;;;4988807;28;20185;-90
2021/11/24 04:22:42;;;;;;;11.57;10.45;;;0.70;58.80;;;;;;4988689;28;20240;-86
2021/11/24 04:25:09;;;;;;;12.38;11.27;;;0.70;58.50;;;;;;4989438;28;20257;-89
2021/11/24 04:27:34;;;;;;;12.00;10.73;;;0.70;58.50;;;;;;4991535;28;20177;-88
2021/11/24 04:30:00;;;;;;;12.27;11.27;;;0.60;58.80;;;;;;4990812;28;20554;-94
2021/11/24 04:32:26;;;;;;;13.55;11.82;;;0.60;58.80;;;;;;4996214;28;20540;-87
2021/11/24 04:34:52;;;;;;;11.67;10.77;;;0.60;58.80;;;;;;4991167;28;20186;-87
2021/11/24 04:37:18;;;;;;;11.57;10.27;;;0.50;59.40;;;;;;4989364;28;20430;-85
2021/11/24 04:39:43;;;;;;;10.83;10.00;;;0.60;59.20;;;;;;4989573;28;20185;-86
2021/11/24 04:42:12;;;;;;;11.70;10.70;;;0.60;58.80;;;;;;4988701;28;20217;-90
2021/11/24 04:44:38;;;;;;;11.57;10.57;;;0.60;59.10;;;;;;4959487;28;20219;-88
2021/11/24 04:47:04;;;;;;;10.70;9.70;;;0.80;58.90;;;;;;4988448;28;20225;-88
2021/11/24 04:49:29;;;;;;;11.03;10.03;;;0.90;58.00;;;;;;4965734;28;20182;-91
2021/11/24 04:51:55;;;;;;;10.50;9.50;;;0.80;58.90;;;;;;4969156;28;20454;-88
2021/11/24 04:54:21;;;;;;;10.37;9.50;;;0.80;58.50;;;;;;4981230;28;20544;-89
2021/11/24 04:56:46;;;;;;;11.67;10.77;;;0.80;59.10;;;;;;4971767;28;20214;-88
2021/11/24 04:59:13;;;;;;;10.27;9.37;;;0.90;58.60;;;;;;4984215;28;20191;-89
2021/11/24 05:01:38;;;;;;;12.70;11.50;;;0.90;57.80;;;;;;4965203;28;20605;-90
2021/11/24 05:04:04;;;;;;;11.00;10.10;;;0.80;58.10;;;;;;4989554;28;20182;-89
2021/11/24 05:06:35;;;;;;;10.80;9.90;;;0.70;58.40;;;;;;4989029;28;20181;-88
2021/11/24 05:09:01;;;;;;;11.40;10.50;;;0.60;58.80;;;;;;4973573;28;20424;-87
2021/11/24 05:11:26;;;;;;;10.47;9.50;;;0.60;59.40;;;;;;4969847;28;20555;-87
2021/11/24 05:13:58;;;;;;;11.23;10.23;;;0.50;58.50;;;;;;4978625;28;20181;-87
2021/11/24 05:16:28;;;;;;;11.75;10.75;;;0.60;58.80;;;;;;4961556;28;20181;-88
2021/11/24 05:18:54;;;;;;;11.88;10.88;;;0.50;58.90;;;;;;4953780;29;20185;-87
2021/11/24 05:21:37;;;;;;;11.10;10.10;;;0.50;59.10;;;;;;4953554;29;20261;-87
2021/11/24 05:24:04;;;;;;;11.13;10.20;;;0.40;58.70;;;;;;4954305;29;20255;-86
2021/11/24 05:26:31;;;;;;;11.93;10.77;;;0.40;59.20;;;;;;4954377;29;20571;-87
2021/11/24 05:28:57;;;;;;;12.60;11.60;;;0.30;58.70;;;;;;4953808;29;20175;-89
2021/11/24 05:31:23;;;;;;;11.85;10.80;;;0.30;59.50;;;;;;4957441;29;20185;-86
2021/11/24 05:33:49;;;;;;;12.23;11.13;;;0.40;59.10;;;;;;4958024;29;20554;-88
2021/11/24 05:36:16;;;;;;;11.30;10.30;;;0.30;59.10;;;;;;4955015;29;20181;-90
2021/11/24 05:38:42;;;;;;;11.70;10.70;;;0.30;59.30;;;;;;4955815;29;20618;-88
2021/11/24 05:41:08;;;;;;;12.20;11.10;;;0.20;59.50;;;;;;4954222;29;20265;-86
2021/11/24 05:43:34;;;;;;;12.63;10.50;;;0.20;59.20;;;;;;4950274;29;20539;-90
2021/11/24 05:46:14;;;;;;;14.45;13.07;;;0.30;59.50;;;;;;4967314;28;20174;-90
2021/11/24 05:48:43;;;;;;;12.15;11.15;;;0.40;58.50;;;;;;4974602;28;20258;-89
2021/11/24 05:51:09;;;;;;;12.80;11.75;;;0.30;58.50;;;;;;4976409;28;20259;-92
2021/11/24 05:53:36;;;;;;;11.70;10.80;;;0.20;59.20;;;;;;4967156;28;20657;-89
2021/11/24 05:56:02;;;;;;;12.75;11.30;;;0.10;59.00;;;;;;4955364;28;20262;-92
2021/11/24 05:58:27;;;;;;;12.93;11.73;;;0.10;59.10;;;;;;4983655;28;20187;-89
2021/11/24 06:00:54;;;;;;;11.73;10.73;;;0.10;60.10;;;;;;4989527;28;20191;-88
2021/11/24 06:03:20;;;;;;;11.68;10.63;;;0.10;59.10;;;;;;4971765;28;20517;-91
2021/11/24 06:05:47;;;;;;;12.10;11.05;;;0.10;60.00;;;;;;4989381;28;20182;-86
2021/11/24 06:08:13;;;;;;;13.35;12.10;;;0.20;59.70;;;;;;4965739;28;20178;-87
2021/11/24 06:10:39;;;;;;;12.33;11.33;;;0.10;59.40;;;;;;4974249;28;20327;-87
2021/11/24 06:13:05;;;;;;;14.13;12.70;;;0.10;59.10;;;;;;4971892;28;20425;-87
2021/11/24 06:15:31;;;;;;;12.95;11.85;;;0.00;59.10;;;;;;4974621;28;20276;-87
2021/11/24 06:17:57;;;;;;;12.32;11.23;;;0.00;59.70;;;;;;4972825;28;20184;-88
2021/11/24 06:20:23;;;;;;;13.15;11.95;;;0.00;60.10;;;;;;4972847;28;20269;-87
2021/11/24 06:22:49;;;;;;;13.75;12.52;;;0.00;59.90;;;;;;4972812;28;20251;-87
2021/11/24 06:25:16;;;;;;;14.00;12.57;;;0.00;59.80;;;;;;4972546;28;20185;-86
2021/11/24 06:27:42;;;;;;;15.27;13.98;;;-0.10;59.70;;;;;;4972774;28;20182;-86
2021/11/24 06:30:10;;;;;;;15.35;13.95;;;0.00;60.40;;;;;;4973268;28;20182;-86
2021/11/24 06:32:36;;;;;;;14.55;13.25;;;0.00;59.70;;;;;;4973598;28;20269;-87
2021/11/24 06:35:02;;;;;;;14.15;13.05;;;0.00;59.70;;;;;;4973411;28;20225;-87
2021/11/24 06:37:28;;;;;;;15.02;13.52;;;-0.10;59.80;;;;;;4972732;28;20179;-89
2021/11/24 06:39:54;;;;;;;16.47;15.07;;;-0.10;60.60;;;;;;4972930;28;20275;-88
2021/11/24 06:42:19;;;;;;;15.67;14.07;;;-0.10;61.10;;;;;;4972523;28;20203;-89
2021/11/24 06:44:45;;;;;;;15.83;14.33;;;-0.10;60.80;;;;;;4973607;28;20183;-91
2021/11/24 06:47:13;;;;;;;18.60;16.00;;;-0.20;61.40;;;;;;4972886;28;20175;-89
2021/11/24 06:49:39;;;;;;;16.08;14.57;;;-0.20;62.10;;;;;;4972981;28;20175;-89
2021/11/24 06:52:05;;;;;;;18.27;16.50;;;-0.30;62.90;;;;;;4973184;28;20502;-89
2021/11/24 06:54:30;;;;;;;23.27;20.92;;;-0.20;63.00;;;;;;4974352;28;20266;-89
2021/11/24 06:56:56;;;;;;;18.60;16.70;;;-0.10;63.50;;;;;;4980652;28;20934;-89
2021/11/24 06:59:22;;;;;;;18.17;16.47;;;0.00;62.10;;;;;;4979013;28;20179;-88
2021/11/24 07:01:47;;;;;;;16.70;15.20;;;0.00;62.60;;;;;;4973020;28;20204;-88
2021/11/24 07:04:13;;;;;;;22.00;19.87;;;-0.10;62.60;;;;;;4972303;28;20215;-88
2021/11/24 07:06:40;;;;;;;18.83;16.93;;;-0.10;63.10;;;;;;4975024;28;20249;-87
2021/11/24 07:09:09;;;;;;;18.48;16.73;;;-0.10;63.30;;;;;;4976398;28;20170;-87
2021/11/24 07:11:35;;;;;;;17.15;15.48;;;-0.10;61.80;;;;;;4976248;28;20800;-87
2021/11/24 07:14:01;;;;;;;18.65;16.65;;;0.00;62.10;;;;;;4976230;28;20183;-86
2021/11/24 07:16:27;;;;;;;18.17;16.50;;;0.00;60.80;;;;;;4975894;28;20180;-89
2021/11/24 07:18:52;;;;;;;23.27;20.23;;;0.00;60.60;;;;;;4975727;28;20217;-89
2021/11/24 07:21:18;;;;;;;18.50;16.77;;;-0.10;60.50;;;;;;4976229;28;20203;-87
2021/11/24 07:23:44;;;;;;;20.17;18.23;;;-0.10;62.20;;;;;;4978035;28;20200;-89
2021/11/24 07:26:10;;;;;;;18.77;16.90;;;-0.20;63.70;;;;;;4976796;28;20915;-89
2021/11/24 07:28:36;;;;;;;23.63;20.13;;;-0.20;64.00;;;;;;4976819;28;20182;-88
2021/11/24 07:31:02;;;;;;;19.60;17.70;;;0.00;64.60;;;;;;4975975;28;20549;-89
2021/11/24 07:33:27;;;;;;;20.23;17.87;;;-0.10;65.20;;;;;;4975534;28;20644;-89
2021/11/24 07:35:53;;;;;;;21.33;18.53;;;0.00;65.50;;;;;;4976753;28;20422;-90
2021/11/24 07:38:19;;;;;;;19.20;17.37;;;0.00;66.20;;;;;;4976929;28;20267;-88
2021/11/24 07:40:44;;;;;;;19.40;17.40;;;0.10;66.10;;;;;;4975307;28;20214;-90
2021/11/24 07:43:10;;;;;;;20.50;18.43;;;0.10;65.10;;;;;;4975811;28;20291;-94
2021/11/24 07:45:36;;;;;;;19.80;17.90;;;0.20;65.70;;;;;;4975799;28;20183;-87
2021/11/24 07:48:02;;;;;;;19.17;17.37;;;0.20;65.90;;;;;;4972185;28;20589;-87
2021/11/24 07:50:31;;;;;;;21.88;18.95;;;0.30;66.20;;;;;;4962997;28;20191;-88
2021/11/24 07:52:57;;;;;;;27.13;19.67;;;0.30;65.50;;;;;;4957652;28;20566;-87
2021/11/24 07:55:22;;;;;;;18.77;16.87;;;0.40;65.80;;;;;;4956547;29;20177;-88
2021/11/24 07:57:48;;;;;;;18.87;16.93;;;0.50;66.10;;;;;;4956724;28;20182;-87
2021/11/24 08:00:14;;;;;;;18.40;15.60;;;0.60;66.20;;;;;;4974980;28;20584;-87
2021/11/24 08:02:40;;;;;;;21.63;18.77;;;0.60;66.00;;;;;;4973743;28;20207;-86
2021/11/24 08:05:07;;;;;;;18.85;16.95;;;0.80;64.40;;;;;;4970933;28;20184;-87
2021/11/24 08:07:36;;;;;;;22.20;18.40;;;0.80;65.40;;;;;;4955952;29;20225;-86
2021/11/24 08:10:05;;;;;;;19.95;18.00;;;0.80;65.60;;;;;;4955500;29;20204;-86
2021/11/24 08:12:31;;;;;;;19.10;17.23;;;0.90;65.50;;;;;;4955869;29;20187;-86
2021/11/24 08:14:56;;;;;;;19.30;17.30;;;1.00;65.40;;;;;;4956423;28;20189;-86
2021/11/24 08:17:22;;;;;;;20.50;18.47;;;1.00;65.10;;;;;;4957434;28;20790;-87
2021/11/24 08:19:49;;;;;;;21.40;18.30;;;1.10;65.90;;;;;;4955875;29;20181;-85
2021/11/24 08:22:15;;;;;;;20.58;18.25;;;1.30;65.70;;;;;;4956167;29;20207;-85
2021/11/24 08:24:40;;;;;;;19.13;17.23;;;1.40;65.10;;;;;;4955666;29;20186;-87
2021/11/24 08:27:06;;;;;;;20.20;18.03;;;1.10;63.40;;;;;;4955723;29;20181;-88
2021/11/24 08:29:32;;;;;;;16.95;15.27;;;1.20;64.20;;;;;;4962807;28;20187;-85
2021/11/24 08:31:58;;;;;;;19.70;16.60;;;1.20;64.60;;;;;;4976645;28;20181;-85
2021/11/24 08:34:23;;;;;;;20.10;17.00;;;1.40;64.40;;;;;;4976112;28;20186;-85
2021/11/24 08:36:50;;;;;;;19.67;17.30;;;1.50;64.50;;;;;;4974484;28;20282;-86
2021/11/24 08:39:16;;;;;;;20.67;15.45;;;1.60;62.80;;;;;;4990949;28;20276;-86
2021/11/24 08:41:46;;;;;;;20.40;17.45;;;1.60;62.80;;;;;;4991806;28;20295;-86
2021/11/24 08:44:13;;;;;;;18.98;17.05;;;1.60;62.70;;;;;;4991036;28;20546;-85
2021/11/24 08:46:40;;;;;;;17.55;15.73;;;1.70;62.30;;;;;;4990816;28;20177;-85
2021/11/24 08:49:05;;;;;;;18.20;16.50;;;1.70;61.30;;;;;;4990679;28;20177;-87
2021/11/24 08:51:36;;;;;;;18.40;16.17;;;1.80;62.30;;;;;;4985435;28;20456;-87
2021/11/24 08:54:02;;;;;;;18.52;16.67;;;1.80;62.30;;;;;;4982058;28;20192;-85
2021/11/24 08:56:30;;;;;;;22.05;17.50;;;1.80;61.60;;;;;;4989218;28;20186;-87
2021/11/24 08:58:56;;;;;;;20.45;17.42;;;1.80;62.00;;;;;;4990202;28;20186;-86
2021/11/24 09:01:21;;;;;;;20.33;18.13;;;1.90;62.90;;;;;;4974000;28;20282;-86
2021/11/24 09:03:47;;;;;;;18.57;16.63;;;2.00;62.20;;;;;;4956482;28;20663;-85
2021/11/24 09:06:16;;;;;;;18.63;16.70;;;1.90;62.30;;;;;;4955174;28;20228;-88
2021/11/24 09:08:41;;;;;;;18.13;16.43;;;1.90;62.50;;;;;;4955908;28;20257;-86
2021/11/24 09:11:07;;;;;;;19.90;17.90;;;2.00;62.40;;;;;;4956085;28;20483;-86
2021/11/24 09:13:33;;;;;;;23.30;20.80;;;2.10;62.10;;;;;;4956369;28;20182;-87
2021/11/24 09:15:59;;;;;;;21.20;18.37;;;2.10;62.50;;;;;;4957344;28;20241;-87
2021/11/24 09:18:24;;;;;;;18.20;15.90;;;2.10;62.60;;;;;;4955012;28;20188;-87
2021/11/24 09:20:50;;;;;;;18.00;16.30;;;2.10;62.20;;;;;;4964513;28;20421;-87
2021/11/24 09:23:18;;;;;;;22.37;18.83;;;2.10;62.40;;;;;;4974075;28;20171;-86
2021/11/24 09:26:01;;;;;;;19.03;17.27;;;2.20;62.90;;;;;;4974020;28;20182;-86
2021/11/24 09:28:34;;;;;;;18.70;17.00;;;2.30;62.70;;;;;;4973180;28;20449;-86
2021/11/24 09:31:02;;;;;;;18.10;16.27;;;2.30;61.50;;;;;;4974117;28;20433;-85
2021/11/24 09:33:28;;;;;;;19.23;17.23;;;2.20;61.50;;;;;;4974935;28;20604;-87
2021/11/24 09:35:58;;;;;;;16.77;15.13;;;2.30;62.00;;;;;;4975342;28;20674;-85
2021/11/24 09:38:24;;;;;;;18.38;16.58;;;2.30;61.30;;;;;;4972365;28;20466;-86
2021/11/24 09:40:51;;;;;;;19.80;16.03;;;2.50;61.20;;;;;;4973705;28;20178;-87
2021/11/24 09:43:19;;;;;;;16.80;15.20;;;2.60;60.50;;;;;;4973708;28;20902;-86
2021/11/24 09:45:46;;;;;;;19.20;15.30;;;2.70;59.90;;;;;;4973330;28;20214;-87
2021/11/24 09:48:18;;;;;;;18.83;15.15;;;2.90;60.30;;;;;;4973856;28;20433;-86
2021/11/24 09:50:46;;;;;;;17.08;15.38;;;2.80;58.70;;;;;;4973533;28;20181;-86
2021/11/24 09:53:14;;;;;;;17.43;15.50;;;2.70;58.90;;;;;;4973901;28;20183;-86
2021/11/24 09:55:40;;;;;;;16.63;14.83;;;2.70;58.60;;;;;;4973335;28;20425;-86
2021/11/24 09:58:07;;;;;;;18.03;16.23;;;2.60;57.20;;;;;;4973776;28;20419;-86
2021/11/24 10:00:35;;;;;;;17.50;15.70;;;2.60;59.00;;;;;;4974071;28;20909;-86
2021/11/24 10:03:02;;;;;;;17.87;16.07;;;2.60;58.10;;;;;;4973999;28;20260;-87
2021/11/24 10:05:30;;;;;;;17.30;15.50;;;2.60;58.60;;;;;;4973314;28;20413;-86
2021/11/24 10:07:57;;;;;;;16.73;14.80;;;2.60;59.10;;;;;;4973195;28;20437;-84
2021/11/24 10:10:23;;;;;;;16.80;15.20;;;2.70;58.60;;;;;;4972906;28;20411;-86
2021/11/24 10:12:49;;;;;;;18.60;16.40;;;2.80;58.20;;;;;;4973897;28;20448;-87
2021/11/24 10:15:38;;;;;;;20.77;16.73;;;2.80;57.60;;;;;;4973931;28;20826;-86
2021/11/24 10:18:12;;;;;;;15.97;14.37;;;2.70;57.90;;;;;;4973443;28;20186;-86
2021/11/24 10:20:54;;;;;;;17.10;15.00;;;2.70;58.20;;;;;;4972748;28;20429;-86
2021/11/24 10:23:22;;;;;;;16.97;15.00;;;2.90;58.40;;;;;;4960404;28;20434;-87
2021/11/24 10:25:48;;;;;;;16.37;14.67;;;3.00;58.40;;;;;;4953435;29;20407;-86
2021/11/24 10:28:29;;;;;;;16.83;15.03;;;3.10;58.40;;;;;;4954050;29;20550;-86
2021/11/24 10:30:56;;;;;;;17.20;14.97;;;3.30;59.00;;;;;;4953480;29;20179;-87
2021/11/24 10:33:27;;;;;;;18.33;15.63;;;3.40;56.90;;;;;;4955075;29;20848;-86
2021/11/24 10:36:03;;;;;;;16.63;13.20;;;3.40;57.10;;;;;;4954180;29;20415;-86
2021/11/24 10:38:38;;;;;;;19.70;14.97;;;3.50;56.90;;;;;;4953852;29;20414;-86
2021/11/24 10:41:04;;;;;;;15.10;13.50;;;3.40;56.40;;;;;;4952573;29;20415;-86
2021/11/24 10:43:43;;;;;;;19.20;16.70;;;3.50;56.50;;;;;;4953712;29;20429;-87
2021/11/24 10:46:11;;;;;;;19.00;17.10;;;3.50;56.30;;;;;;4953963;29;20407;-86
2021/11/24 10:48:38;;;;;;;18.00;15.70;;;3.50;55.90;;;;;;4953663;29;20518;-86
2021/11/24 10:51:31;;;;;;;16.20;14.47;;;3.50;56.20;;;;;;4965947;28;20945;-87
2021/11/24 10:54:10;;;;;;;14.50;12.63;;;3.60;56.00;;;;;;4972399;28;20422;-86
2021/11/24 10:57:04;;;;;;;14.70;13.10;;;3.60;55.40;;;;;;4973234;28;21026;-86
2021/11/24 10:59:33;;;;;;;15.03;13.43;;;3.60;56.10;;;;;;4974300;28;20414;-86
2021/11/24 11:02:19;;;;;;;17.90;14.07;;;3.60;55.10;;;;;;4968708;28;20538;-86
2021/11/24 11:05:15;;;;;;;15.20;13.60;;;3.60;54.90;;;;;;4959011;29;20423;-86
2021/11/24 11:07:50;;;;;;;14.03;12.63;;;3.60;55.80;;;;;;4956817;29;20430;-86
2021/11/24 11:10:23;;;;;;;16.47;14.47;;;3.70;54.50;;;;;;4954359;29;20922;-85
2021/11/24 11:12:52;;;;;;;13.70;12.40;;;3.70;54.80;;;;;;4954907;28;20433;-86
2021/11/24 11:15:23;;;;;;;14.13;12.60;;;3.70;54.50;;;;;;4953676;29;20505;-87
2021/11/24 11:18:06;;;;;;;13.87;12.43;;;3.60;54.00;;;;;;4953920;29;20423;-85
2021/11/24 11:20:52;;;;;;;13.63;11.40;;;3.70;54.20;;;;;;4953281;29;20422;-85
2021/11/24 11:23:23;;;;;;;14.47;13.00;;;3.70;53.40;;;;;;4952516;29;20419;-87
2021/11/24 11:25:55;;;;;;;17.03;15.13;;;3.70;53.90;;;;;;4952830;29;20769;-87
2021/11/24 11:28:24;;;;;;;15.63;14.03;;;3.80;53.70;;;;;;4953069;29;20414;-86
2021/11/24 11:30:52;;;;;;;15.97;13.57;;;3.90;53.50;;;;;;4952690;29;20478;-86
2021/11/24 11:33:21;;;;;;;15.60;13.60;;;4.00;52.50;;;;;;4952930;29;20410;-87
2021/11/24 11:35:47;;;;;;;16.27;13.63;;;4.10;50.80;;;;;;4952610;29;20418;-87
2021/11/24 11:38:14;;;;;;;14.53;12.97;;;4.20;51.00;;;;;;4952969;28;20784;-87
2021/11/24 11:40:42;;;;;;;17.40;15.23;;;4.20;49.10;;;;;;4952728;29;20418;-86
2021/11/24 11:43:09;;;;;;;18.57;13.37;;;4.20;49.30;;;;;;4954199;28;20498;-87
2021/11/24 11:45:37;;;;;;;16.67;14.10;;;4.10;48.80;;;;;;4952625;29;20411;-86
2021/11/24 11:48:05;;;;;;;15.20;12.90;;;4.10;49.90;;;;;;4952615;29;20900;-85
2021/11/24 11:50:53;;;;;;;14.90;12.47;;;4.10;49.80;;;;;;4952544;29;20423;-87
2021/11/24 11:53:26;;;;;;;14.60;13.13;;;4.20;49.30;;;;;;4955521;28;20426;-85
2021/11/24 11:56:13;;;;;;;13.27;11.97;;;4.20;50.00;;;;;;4956684;29;20980;-85
2021/11/24 11:59:09;;;;;;;15.37;13.23;;;4.10;49.30;;;;;;4956302;29;20490;-86
2021/11/24 12:01:35;;;;;;;16.77;12.83;;;4.10;49.20;;;;;;4949791;29;20462;-86
2021/11/24 12:04:09;;;;;;;15.90;14.20;;;4.10;49.50;;;;;;4956188;29;20422;-86
2021/11/24 12:06:44;;;;;;;16.17;13.03;;;4.20;48.90;;;;;;4956149;28;20529;-86
2021/11/24 12:09:11;;;;;;;13.77;12.27;;;4.30;48.40;;;;;;4956575;29;20514;-86
2021/11/24 12:14:41;;;;;;;16.60;13.30;;;4.30;48.90;;;;;;4957409;29;20425;-86
2021/11/24 12:22:45;;;;;;;14.20;12.43;;;4.40;47.80;;;;;;4975212;28;20466;-86
2021/11/24 12:33:13;;;;;;;14.00;12.40;;;4.40;48.60;;;;;;4976064;28;20414;-87
2021/11/24 12:35:59;;;;;;;14.77;12.27;;;4.40;48.20;;;;;;4971182;28;20560;-86
2021/11/24 12:38:31;;;;;;;13.87;11.30;;;4.40;47.80;;;;;;4954776;29;20449;-86
2021/11/24 12:40:59;;;;;;;13.80;12.33;;;4.50;47.80;;;;;;4955381;29;20522;-86
2021/11/24 12:43:28;;;;;;;15.60;11.20;;;4.50;46.70;;;;;;4955291;29;20430;-84
2021/11/24 12:46:25;;;;;;;13.37;11.97;;;4.50;47.80;;;;;;4955715;29;20990;-88
2021/11/24 12:49:01;;;;;;;14.80;13.27;;;4.50;47.90;;;;;;4956127;29;20488;-88
2021/11/24 12:51:38;;;;;;;13.43;12.03;;;4.50;48.00;;;;;;4962247;29;20442;-88
2021/11/24 12:54:11;;;;;;;19.17;13.30;;;4.50;47.40;;;;;;4958523;29;20426;-89
2021/11/24 12:56:43;;;;;;;14.60;12.37;;;4.50;47.80;;;;;;4956714;29;20482;-89
2021/11/24 12:59:12;;;;;;;16.13;14.43;;;4.60;47.90;;;;;;4956868;29;20510;-89
2021/11/24 13:01:41;;;;;;;15.23;13.77;;;4.60;46.10;;;;;;4956591;29;20538;-84